WET,Max TemperatureF,Mean TemperatureF,Min TemperatureF,Max Dew PointF,MeanDew PointF,Min DewpointF,Max Humidity, Mean Humidity, Min Humidity, Max Sea Level PressureIn, Mean Sea Level PressureIn, Min Sea Level PressureIn, Max VisibilityMiles, Mean VisibilityMiles, Min VisibilityMiles, Max Wind SpeedMPH, Mean Wind SpeedMPH, Max Gust SpeedMPH,PrecipitationIn, CloudCover, Events, WindDirDegrees
2012-10-1,79,70,60,64,62,59,94,76,48,30.07,30.04,30.01,6,6,6,14,4,,0.00,1,,223
2012-10-2,80,70,61,66,63,61,94,78,54,30.09,30.04,30.00,6,5,3,14,4,,0.00,5,,238
2012-10-3,80,72,63,65,63,61,94,81,49,30.04,30.00,29.94,5,4,1,14,3,,0.00,4,,243
2012-10-4,78,70,63,66,64,61,94,74,50,30.01,29.98,29.95,5,4,3,15,5,,0.00,4,,270
2012-10-5,86,76,65,65,62,55,94,68,32,30.06,30.02,29.98,6,4,2,14,3,,0.00,4,,202
2012-10-6,94,79,64,61,59,55,88,57,19,30.06,30.03,30.01,6,5,5,14,4,,0.00,,,230
2012-10-7,87,76,65,64,60,55,88,60,27,30.10,30.06,30.03,6,6,4,13,5,,0.00,3,,204
2012-10-8,83,72,62,66,64,61,94,80,49,30.08,30.03,29.98,6,4,0,13,5,,0.00,5,Fog,258
2012-10-9,86,75,64,66,62,55,88,67,35,30.07,29.98,29.95,6,5,4,14,7,,0.00,3,,27
2012-10-10,99,82,64,66,57,45,83,44,13,30.02,29.97,29.92,6,5,4,17,10,,0.00,3,,72
2012-10-11,91,79,67,64,57,50,83,50,20,30.01,29.96,29.92,6,6,4,14,8,,0.00,3,,161
2012-10-12,83,72,62,66,63,61,94,80,56,30.04,29.99,29.95,6,6,5,13,4,,0.00,3,,205
2012-10-13,78,70,62,63,60,59,83,69,44,30.04,29.96,29.89,6,5,5,14,4,,0.00,3,,161
2012-10-14,77,68,60,61,60,57,88,73,52,29.96,29.90,29.86,6,5,5,13,5,,0.00,4,,199
2012-10-15,79,69,59,61,59,57,94,72,44,29.92,29.85,29.80,6,6,5,12,3,,0.00,2,,261
2012-10-16,84,72,59,63,61,59,94,77,42,29.91,29.86,29.83,6,5,4,18,4,,0.00,4,,283
2012-10-17,75,68,60,64,62,58,94,79,55,29.90,29.87,29.83,6,5,3,13,4,,0.00,4,,242
2012-10-18,77,69,61,63,61,57,88,73,43,29.88,29.82,29.77,6,6,4,14,3,25,0.00,3,,257
2012-10-19,72,66,59,61,55,48,94,71,43,29.87,29.83,29.80,6,6,6,22,9,,0.00,2,,231
2012-10-20,73,62,51,55,52,48,94,68,32,29.98,29.92,29.86,6,6,6,15,5,,0.00,1,,212
2012-10-21,78,64,50,57,52,48,94,69,32,30.03,29.97,29.92,6,6,6,14,5,,0.00,,,131
2012-10-22,90,70,50,55,47,36,94,51,8,30.05,29.99,29.94,6,6,6,12,4,,0.00,4,,97
2012-10-23,93,81,69,61,53,44,61,40,15,30.04,29.97,29.89,6,6,6,17,9,,0.02,3,Thunderstorm,82
2012-10-24,89,78,66,64,59,48,88,59,23,30.01,29.97,29.94,6,6,6,10,3,,0.00,5,,219
2012-10-25,79,70,60,65,62,59,94,78,49,29.96,29.93,29.89,6,6,4,14,5,,0.00,4,,245
2012-10-26,75,66,58,66,63,59,94,79,57,29.95,29.91,29.86,6,5,3,17,4,,0.35,5,Rain,241
2012-10-27,77,70,64,63,60,56,94,74,38,29.92,29.89,29.86,6,6,6,20,7,,0.00,4,,238
2012-10-28,75,66,57,63,59,55,94,78,43,29.98,29.94,29.89,6,6,1,10,3,,0.00,5,,264
2012-10-29,68,64,60,61,59,58,94,84,69,29.98,29.91,29.83,6,5,1,14,7,,1.22,5,Rain,65
2012-10-30,71,66,60,68,64,60,94,92,85,29.93,29.81,29.71,6,4,1,12,6,25,0.67,6,Rain,170
2012-10-31,73,68,63,70,68,66,94,90,84,29.83,29.73,29.65,5,3,2,18,14,34,0.04,7,Rain,223